Impacts TAF Board
For situational awareness. Not to be used for flight planning purposes.
IDs:

KSAV - Savannah Intl, GA, US

Issued at 2016 UTC 21 May 2022
Updated at 2231 UTC 21 May 2022
Potential Impact None Slight Moderate High
Time2153Z 21/23Z 22/00Z 22/01Z 22/02Z 22/03Z 22/04Z 22/05Z 22/06Z 22/07Z 22/08Z 22/09Z 22/10Z 22/11Z>>
Type OBS PRVL PRVL PRVL PRVL PRVL PRVL PRVL PRVL PRVL PRVL PRVL PRVL PRVL
VIS 10 >6 >6 >6 >6 >6 >6 >6 >6 >6 >6 >6 >6 >6
CIG 210 80 80 80 80 200 200 200 200 200 200 200 200 200
Cover OVC BKN BKN BKN BKN BKN BKN BKN BKN BKN BKN BKN BKN BKN
FltCat VFR VFR VFR VFR VFR VFR VFR VFR VFR VFR VFR VFR VFR VFR
WX -- -- -- -- -- -- -- -- -- -- -- -- -- --
WDir 170 190 190 190 190 210 210 210 210 210 210 210 210 210
WSpd 11 10 10 10 10 4 4 4 4 4 4 4 4 4
WGst -- -- -- -- -- -- -- -- -- -- -- -- -- --
WSHgt -- -- -- -- -- -- -- -- -- -- -- -- -- --
WSDir -- -- -- -- -- -- -- -- -- -- -- -- -- --
WSSpd -- -- -- -- -- -- -- -- -- -- -- -- -- --
R01/19
XWnd -2 2 2 2 2 2 2 2 2 2 2 2 2 2
R10/28
XWnd -11 -10 -10 -10 -10 -3 -3 -3 -3 -3 -3 -3 -3 -3
Raw TAF
KSAV 212016Z 2120/2218 18012G19KT P6SM VCSH SCT030 BKN100
  TEMPO 2120/2122 VRB15G25KT 3SM TSRA SCT025CB BKN040
  FM212300 19010KT P6SM SCT050 BKN080
  FM220300 21004KT P6SM BKN200
  FM221400 25007KT P6SM BKN200


Raw METAR
KSAV 212153Z 17011KT 10SM SCT017 OVC210 24/20 A3015 RMK AO2 SLP210 T02440200
KSAV 212053Z 19013G19KT 10SM FEW030 SCT110 OVC200 26/21 A3019 RMK AO2 LTG DSNT SE SLP222 CB DSNT SE T02560206 53009
KSAV 211953Z 17017KT 10SM SCT030 BKN110 OVC200 27/19 A3017 RMK AO2 LTG DSNT W SLP215 T02720194

METAR Board
Radar Display
Forecast Discussion
For situational awareness. Not to be used for flight planning purposes.